Lantana, FL

2:03 AM EST on December 19, 2014 (GMT -0500)
APRSWXNET Lantana FL US | Change Station
CLOSE
Current Station
Personal Weather Station
Location: Boca Raton, FL
Elevation: 16 ft
Nearby Weather Stations

Elev 16 ft 26.58 °N, 80.06 °W | Updated 84 days ago

Clear
Clear
61 °F
Feels Like 61 °F
N
2
Wind Variable Wind from NW
Gusts 2 mph

Today
High -- | Low -- °F
--% Chance of Precip.
Yesterday
High -- | Low -- °F
Precip. -- in
7:03 AM 5:31 PM
Waning Crescent, 9% visible
Pressure 30.07 in
Visibility 10.0 miles
Clouds Few 25000 ft
Dew Point 52 °F
Humidity 71%
Rainfall 0.38 in
Snow Depth Not available.
UV 0 out of 12
Pollen 3.90 out of 12
Air Quality Not available.
Flu Activity Not available.
METAR KPBI 190653Z 31003KT 10SM FEW250 13/12 A3007 RMK AO2 SLP183 T01330117

More Conditions Fewer Conditions

Pressure 30.07 in
Visibility 10.0 miles
Clouds Few 25000 ft
Dew Point 52 °F
Humidity 71%
Rainfall 0.38 in
Snow Depth Not available.
UV 0 out of 12
Pollen 3.90 out of 12
Air Quality Not available.
Flu Activity Not available.
METAR KPBI 190653Z 31003KT 10SM FEW250 13/12 A3007 RMK AO2 SLP183 T01330117

More Conditions Fewer Conditions

10-Day Weather Forecast

Almanac

Astronomy

Dec. 19, 2014 Rise Set
Actual Time
Civil Twilight
Nautical Twilight
Astronomical Twilight
Moon
Length of Visible Light
Length of Day
Tomorrow will be .
, % of the Moon is Illuminated

Today's Extremes

State Highs State Lows

Community

WunderPhotos

Upload Photos

1,778,952 photos uploaded!

WunderBlogs® & News

Nearby

Air Quality

  Air Quality AQ Index Pollutant
Not available.

Snow Depth

Station Depth Elevation

Earthquake Activity

City Distance Mag. Time & Date
Minimum magnitude displayed is 2.5.

Coastal Water Temperatures

Place Temperature

Nearby Weather Stations